sensor_id;sensor_type;location;lat;lon;timestamp;P1;durP1;ratioP1;P2;durP2;ratioP2
31004;SDS011;17676;52.254;4.490;2023-11-19T00:01:22;52.55;;;4.43;;
31004;SDS011;17676;52.254;4.490;2023-11-19T00:03:48;43.30;;;4.47;;
31004;SDS011;17676;52.254;4.490;2023-11-19T00:06:14;28.42;;;3.20;;
31004;SDS011;17676;52.254;4.490;2023-11-19T00:08:43;43.25;;;4.70;;
31004;SDS011;17676;52.254;4.490;2023-11-19T00:11:09;45.95;;;5.15;;
31004;SDS011;17676;52.254;4.490;2023-11-19T00:13:36;39.33;;;5.40;;
31004;SDS011;17676;52.254;4.490;2023-11-19T00:16:02;44.85;;;5.88;;
31004;SDS011;17676;52.254;4.490;2023-11-19T00:18:29;49.75;;;5.60;;
31004;SDS011;17676;52.254;4.490;2023-11-19T00:20:55;39.63;;;4.75;;
31004;SDS011;17676;52.254;4.490;2023-11-19T00:23:20;52.22;;;5.43;;
31004;SDS011;17676;52.254;4.490;2023-11-19T00:25:46;43.15;;;5.25;;
31004;SDS011;17676;52.254;4.490;2023-11-19T00:28:13;43.05;;;5.53;;
31004;SDS011;17676;52.254;4.490;2023-11-19T00:30:38;48.17;;;5.28;;
31004;SDS011;17676;52.254;4.490;2023-11-19T00:33:05;44.00;;;5.18;;
31004;SDS011;17676;52.254;4.490;2023-11-19T00:35:31;47.20;;;5.38;;
31004;SDS011;17676;52.254;4.490;2023-11-19T00:37:58;42.30;;;6.20;;
31004;SDS011;17676;52.254;4.490;2023-11-19T00:40:23;52.70;;;5.20;;
31004;SDS011;17676;52.254;4.490;2023-11-19T00:42:49;60.75;;;6.30;;
31004;SDS011;17676;52.254;4.490;2023-11-19T00:45:18;54.42;;;7.22;;
31004;SDS011;17676;52.254;4.490;2023-11-19T00:47:43;51.60;;;6.85;;
31004;SDS011;17676;52.254;4.490;2023-11-19T00:50:09;47.20;;;6.05;;
31004;SDS011;17676;52.254;4.490;2023-11-19T00:52:36;45.80;;;6.35;;
31004;SDS011;17676;52.254;4.490;2023-11-19T00:55:02;45.40;;;4.95;;
31004;SDS011;17676;52.254;4.490;2023-11-19T00:57:29;53.55;;;5.90;;
31004;SDS011;17676;52.254;4.490;2023-11-19T00:59:55;51.72;;;5.93;;
31004;SDS011;17676;52.254;4.490;2023-11-19T01:02:21;53.03;;;6.95;;
31004;SDS011;17676;52.254;4.490;2023-11-19T01:04:46;32.47;;;4.28;;
31004;SDS011;17676;52.254;4.490;2023-11-19T01:07:12;41.25;;;5.93;;
31004;SDS011;17676;52.254;4.490;2023-11-19T01:09:38;42.88;;;6.07;;
31004;SDS011;17676;52.254;4.490;2023-11-19T01:12:06;41.47;;;5.60;;
31004;SDS011;17676;52.254;4.490;2023-11-19T01:14:32;50.13;;;6.30;;
31004;SDS011;17676;52.254;4.490;2023-11-19T01:16:58;51.80;;;6.88;;
31004;SDS011;17676;52.254;4.490;2023-11-19T01:19:24;46.15;;;6.55;;
31004;SDS011;17676;52.254;4.490;2023-11-19T01:21:50;58.60;;;7.85;;
31004;SDS011;17676;52.254;4.490;2023-11-19T01:24:16;48.65;;;8.48;;
31004;SDS011;17676;52.254;4.490;2023-11-19T01:26:43;59.55;;;7.55;;
31004;SDS011;17676;52.254;4.490;2023-11-19T01:29:13;49.05;;;7.13;;
31004;SDS011;17676;52.254;4.490;2023-11-19T01:31:43;42.03;;;6.05;;
31004;SDS011;17676;52.254;4.490;2023-11-19T01:34:12;51.67;;;7.30;;
31004;SDS011;17676;52.254;4.490;2023-11-19T01:36:37;52.88;;;6.32;;
31004;SDS011;17676;52.254;4.490;2023-11-19T01:39:04;47.58;;;6.50;;
31004;SDS011;17676;52.254;4.490;2023-11-19T01:41:36;37.80;;;4.63;;
31004;SDS011;17676;52.254;4.490;2023-11-19T01:44:01;43.85;;;5.32;;
31004;SDS011;17676;52.254;4.490;2023-11-19T01:46:28;46.38;;;6.65;;
31004;SDS011;17676;52.254;4.490;2023-11-19T01:48:57;59.10;;;6.95;;
31004;SDS011;17676;52.254;4.490;2023-11-19T01:51:24;49.75;;;5.97;;
31004;SDS011;17676;52.254;4.490;2023-11-19T01:53:50;50.03;;;5.70;;
31004;SDS011;17676;52.254;4.490;2023-11-19T01:56:16;50.05;;;6.47;;
31004;SDS011;17676;52.254;4.490;2023-11-19T01:58:42;61.92;;;7.30;;
31004;SDS011;17676;52.254;4.490;2023-11-19T02:01:10;57.55;;;8.10;;
31004;SDS011;17676;52.254;4.490;2023-11-19T02:03:37;50.97;;;5.68;;
31004;SDS011;17676;52.254;4.490;2023-11-19T02:06:03;41.25;;;4.60;;
31004;SDS011;17676;52.254;4.490;2023-11-19T02:08:30;47.45;;;5.88;;
31004;SDS011;17676;52.254;4.490;2023-11-19T02:10:56;52.83;;;5.47;;
31004;SDS011;17676;52.254;4.490;2023-11-19T02:13:21;58.50;;;6.43;;
31004;SDS011;17676;52.254;4.490;2023-11-19T02:15:47;62.78;;;8.02;;
31004;SDS011;17676;52.254;4.490;2023-11-19T02:20:46;54.28;;;5.68;;
31004;SDS011;17676;52.254;4.490;2023-11-19T02:23:13;55.92;;;6.55;;
31004;SDS011;17676;52.254;4.490;2023-11-19T02:25:39;52.10;;;7.05;;
31004;SDS011;17676;52.254;4.490;2023-11-19T02:28:05;68.53;;;7.05;;
31004;SDS011;17676;52.254;4.490;2023-11-19T02:30:32;58.88;;;7.22;;
31004;SDS011;17676;52.254;4.490;2023-11-19T02:33:00;63.03;;;7.47;;
31004;SDS011;17676;52.254;4.490;2023-11-19T02:35:30;51.25;;;6.18;;
31004;SDS011;17676;52.254;4.490;2023-11-19T02:37:58;51.55;;;6.38;;
31004;SDS011;17676;52.254;4.490;2023-11-19T02:40:25;47.53;;;5.70;;
31004;SDS011;17676;52.254;4.490;2023-11-19T02:42:51;62.22;;;5.95;;
31004;SDS011;17676;52.254;4.490;2023-11-19T02:45:20;65.07;;;7.32;;
31004;SDS011;17676;52.254;4.490;2023-11-19T02:47:53;44.90;;;6.40;;
31004;SDS011;17676;52.254;4.490;2023-11-19T02:50:20;49.50;;;6.07;;
31004;SDS011;17676;52.254;4.490;2023-11-19T02:52:52;53.55;;;6.72;;
31004;SDS011;17676;52.254;4.490;2023-11-19T02:55:21;42.95;;;5.15;;
31004;SDS011;17676;52.254;4.490;2023-11-19T02:57:48;62.30;;;7.45;;
31004;SDS011;17676;52.254;4.490;2023-11-19T03:00:21;55.95;;;6.80;;
31004;SDS011;17676;52.254;4.490;2023-11-19T03:02:57;41.92;;;5.68;;
31004;SDS011;17676;52.254;4.490;2023-11-19T03:05:42;47.78;;;7.38;;
31004;SDS011;17676;52.254;4.490;2023-11-19T03:08:09;59.92;;;6.80;;
31004;SDS011;17676;52.254;4.490;2023-11-19T03:10:35;64.13;;;7.68;;
31004;SDS011;17676;52.254;4.490;2023-11-19T03:13:01;50.00;;;6.97;;
31004;SDS011;17676;52.254;4.490;2023-11-19T03:15:27;50.08;;;6.57;;
31004;SDS011;17676;52.254;4.490;2023-11-19T03:17:52;53.08;;;5.90;;
31004;SDS011;17676;52.254;4.490;2023-11-19T03:20:19;48.67;;;5.65;;
31004;SDS011;17676;52.254;4.490;2023-11-19T03:22:46;38.03;;;5.50;;
31004;SDS011;17676;52.254;4.490;2023-11-19T03:25:11;48.08;;;5.90;;
31004;SDS011;17676;52.254;4.490;2023-11-19T03:27:38;45.15;;;5.70;;
31004;SDS011;17676;52.254;4.490;2023-11-19T03:30:06;55.72;;;6.47;;
31004;SDS011;17676;52.254;4.490;2023-11-19T03:32:36;43.67;;;5.95;;
31004;SDS011;17676;52.254;4.490;2023-11-19T03:35:02;46.30;;;6.18;;
31004;SDS011;17676;52.254;4.490;2023-11-19T03:37:29;52.28;;;5.47;;
31004;SDS011;17676;52.254;4.490;2023-11-19T03:39:56;42.05;;;5.10;;
31004;SDS011;17676;52.254;4.490;2023-11-19T03:42:25;53.88;;;6.32;;
31004;SDS011;17676;52.254;4.490;2023-11-19T03:44:52;51.33;;;6.75;;
31004;SDS011;17676;52.254;4.490;2023-11-19T03:47:18;44.75;;;5.45;;
31004;SDS011;17676;52.254;4.490;2023-11-19T03:49:50;61.15;;;7.38;;
31004;SDS011;17676;52.254;4.490;2023-11-19T03:52:16;43.67;;;4.53;;
31004;SDS011;17676;52.254;4.490;2023-11-19T03:54:43;43.70;;;5.32;;
31004;SDS011;17676;52.254;4.490;2023-11-19T03:57:09;54.63;;;5.63;;
31004;SDS011;17676;52.254;4.490;2023-11-19T03:59:38;50.70;;;6.03;;
31004;SDS011;17676;52.254;4.490;2023-11-19T04:02:04;55.53;;;5.85;;
31004;SDS011;17676;52.254;4.490;2023-11-19T04:04:30;38.95;;;4.15;;
31004;SDS011;17676;52.254;4.490;2023-11-19T04:06:56;51.38;;;6.43;;
31004;SDS011;17676;52.254;4.490;2023-11-19T04:09:21;37.58;;;4.38;;
31004;SDS011;17676;52.254;4.490;2023-11-19T04:11:47;40.47;;;4.78;;
31004;SDS011;17676;52.254;4.490;2023-11-19T04:14:13;28.13;;;4.10;;
31004;SDS011;17676;52.254;4.490;2023-11-19T04:16:40;37.53;;;4.65;;
31004;SDS011;17676;52.254;4.490;2023-11-19T04:19:06;32.50;;;3.75;;
31004;SDS011;17676;52.254;4.490;2023-11-19T04:21:32;41.78;;;5.65;;
31004;SDS011;17676;52.254;4.490;2023-11-19T04:23:58;38.30;;;5.00;;
31004;SDS011;17676;52.254;4.490;2023-11-19T04:26:24;46.10;;;5.57;;
31004;SDS011;17676;52.254;4.490;2023-11-19T04:28:50;44.35;;;5.75;;
31004;SDS011;17676;52.254;4.490;2023-11-19T04:31:15;45.40;;;5.32;;
31004;SDS011;17676;52.254;4.490;2023-11-19T04:33:41;47.40;;;4.95;;
31004;SDS011;17676;52.254;4.490;2023-11-19T04:36:08;29.13;;;3.55;;
31004;SDS011;17676;52.254;4.490;2023-11-19T04:38:34;36.58;;;4.10;;
31004;SDS011;17676;52.254;4.490;2023-11-19T04:41:00;46.45;;;5.35;;
31004;SDS011;17676;52.254;4.490;2023-11-19T04:43:26;44.60;;;6.18;;
31004;SDS011;17676;52.254;4.490;2023-11-19T04:45:52;41.97;;;5.45;;
31004;SDS011;17676;52.254;4.490;2023-11-19T04:48:17;32.40;;;4.72;;
31004;SDS011;17676;52.254;4.490;2023-11-19T04:50:43;38.60;;;4.07;;
31004;SDS011;17676;52.254;4.490;2023-11-19T04:53:08;46.75;;;5.40;;
31004;SDS011;17676;52.254;4.490;2023-11-19T04:55:35;28.52;;;3.65;;
31004;SDS011;17676;52.254;4.490;2023-11-19T04:58:00;41.72;;;5.82;;
31004;SDS011;17676;52.254;4.490;2023-11-19T05:00:26;29.10;;;3.90;;
31004;SDS011;17676;52.254;4.490;2023-11-19T05:02:53;21.77;;;2.28;;
31004;SDS011;17676;52.254;4.490;2023-11-19T05:05:18;31.08;;;3.72;;
31004;SDS011;17676;52.254;4.490;2023-11-19T05:07:44;38.53;;;4.30;;
31004;SDS011;17676;52.254;4.490;2023-11-19T05:10:10;33.42;;;3.72;;
31004;SDS011;17676;52.254;4.490;2023-11-19T05:12:35;44.35;;;5.65;;
31004;SDS011;17676;52.254;4.490;2023-11-19T05:15:01;41.05;;;5.35;;
31004;SDS011;17676;52.254;4.490;2023-11-19T05:17:27;39.40;;;4.43;;
31004;SDS011;17676;52.254;4.490;2023-11-19T05:19:52;42.25;;;5.13;;
31004;SDS011;17676;52.254;4.490;2023-11-19T05:22:18;38.08;;;4.95;;
31004;SDS011;17676;52.254;4.490;2023-11-19T05:24:45;30.58;;;3.70;;
31004;SDS011;17676;52.254;4.490;2023-11-19T05:27:13;45.22;;;4.95;;
31004;SDS011;17676;52.254;4.490;2023-11-19T05:29:42;32.35;;;3.55;;
31004;SDS011;17676;52.254;4.490;2023-11-19T05:32:08;29.80;;;3.42;;
31004;SDS011;17676;52.254;4.490;2023-11-19T05:34:34;41.45;;;4.55;;
31004;SDS011;17676;52.254;4.490;2023-11-19T05:37:00;38.78;;;4.82;;
31004;SDS011;17676;52.254;4.490;2023-11-19T05:39:27;29.17;;;4.60;;
31004;SDS011;17676;52.254;4.490;2023-11-19T05:41:53;45.65;;;5.85;;
31004;SDS011;17676;52.254;4.490;2023-11-19T05:44:19;38.53;;;5.20;;
31004;SDS011;17676;52.254;4.490;2023-11-19T05:46:44;28.23;;;3.72;;
31004;SDS011;17676;52.254;4.490;2023-11-19T05:49:11;43.45;;;5.07;;
31004;SDS011;17676;52.254;4.490;2023-11-19T05:51:37;29.85;;;3.70;;
31004;SDS011;17676;52.254;4.490;2023-11-19T05:54:04;30.15;;;4.10;;
31004;SDS011;17676;52.254;4.490;2023-11-19T05:56:32;38.15;;;4.75;;
31004;SDS011;17676;52.254;4.490;2023-11-19T05:58:58;44.33;;;4.20;;
31004;SDS011;17676;52.254;4.490;2023-11-19T06:01:26;46.03;;;5.25;;
31004;SDS011;17676;52.254;4.490;2023-11-19T06:03:52;37.22;;;5.32;;
31004;SDS011;17676;52.254;4.490;2023-11-19T06:06:18;28.63;;;4.05;;
31004;SDS011;17676;52.254;4.490;2023-11-19T06:08:44;37.13;;;4.75;;
31004;SDS011;17676;52.254;4.490;2023-11-19T06:11:09;39.78;;;5.00;;
31004;SDS011;17676;52.254;4.490;2023-11-19T06:13:39;38.85;;;4.20;;
31004;SDS011;17676;52.254;4.490;2023-11-19T06:16:05;44.13;;;6.00;;
31004;SDS011;17676;52.254;4.490;2023-11-19T06:18:31;35.65;;;3.85;;
31004;SDS011;17676;52.254;4.490;2023-11-19T06:20:57;40.85;;;5.05;;
31004;SDS011;17676;52.254;4.490;2023-11-19T06:23:22;41.13;;;6.55;;
31004;SDS011;17676;52.254;4.490;2023-11-19T06:25:48;41.72;;;5.03;;
31004;SDS011;17676;52.254;4.490;2023-11-19T06:28:14;47.85;;;5.18;;
31004;SDS011;17676;52.254;4.490;2023-11-19T06:30:40;35.50;;;4.85;;
31004;SDS011;17676;52.254;4.490;2023-11-19T06:33:08;34.85;;;4.85;;
31004;SDS011;17676;52.254;4.490;2023-11-19T06:35:34;41.53;;;5.45;;
31004;SDS011;17676;52.254;4.490;2023-11-19T06:38:03;44.72;;;5.10;;
31004;SDS011;17676;52.254;4.490;2023-11-19T06:40:34;35.42;;;4.47;;
31004;SDS011;17676;52.254;4.490;2023-11-19T06:43:00;40.63;;;4.57;;
31004;SDS011;17676;52.254;4.490;2023-11-19T06:45:28;34.15;;;4.68;;
31004;SDS011;17676;52.254;4.490;2023-11-19T06:47:54;38.10;;;4.00;;
31004;SDS011;17676;52.254;4.490;2023-11-19T06:50:20;35.60;;;4.28;;
31004;SDS011;17676;52.254;4.490;2023-11-19T06:52:45;37.60;;;4.13;;
31004;SDS011;17676;52.254;4.490;2023-11-19T06:55:14;31.48;;;4.80;;
31004;SDS011;17676;52.254;4.490;2023-11-19T06:57:40;30.80;;;4.10;;
31004;SDS011;17676;52.254;4.490;2023-11-19T07:00:07;29.35;;;4.25;;
31004;SDS011;17676;52.254;4.490;2023-11-19T07:02:33;37.17;;;4.05;;
31004;SDS011;17676;52.254;4.490;2023-11-19T07:04:59;38.53;;;4.30;;
31004;SDS011;17676;52.254;4.490;2023-11-19T07:07:25;36.22;;;4.22;;
31004;SDS011;17676;52.254;4.490;2023-11-19T07:09:51;34.30;;;3.97;;
31004;SDS011;17676;52.254;4.490;2023-11-19T07:12:17;30.10;;;3.42;;
31004;SDS011;17676;52.254;4.490;2023-11-19T07:14:43;34.22;;;4.65;;
31004;SDS011;17676;52.254;4.490;2023-11-19T07:17:08;32.85;;;4.20;;
31004;SDS011;17676;52.254;4.490;2023-11-19T07:19:35;34.22;;;4.10;;
31004;SDS011;17676;52.254;4.490;2023-11-19T07:22:01;37.85;;;4.88;;
31004;SDS011;17676;52.254;4.490;2023-11-19T07:24:27;35.72;;;3.83;;
31004;SDS011;17676;52.254;4.490;2023-11-19T07:26:56;31.42;;;4.38;;
31004;SDS011;17676;52.254;4.490;2023-11-19T07:29:21;34.53;;;3.95;;
31004;SDS011;17676;52.254;4.490;2023-11-19T07:31:50;34.22;;;3.50;;
31004;SDS011;17676;52.254;4.490;2023-11-19T07:34:16;34.65;;;4.35;;
31004;SDS011;17676;52.254;4.490;2023-11-19T07:36:41;31.65;;;3.45;;
31004;SDS011;17676;52.254;4.490;2023-11-19T07:39:07;31.95;;;3.33;;
31004;SDS011;17676;52.254;4.490;2023-11-19T07:41:33;37.28;;;4.07;;
31004;SDS011;17676;52.254;4.490;2023-11-19T07:43:59;32.85;;;3.80;;
31004;SDS011;17676;52.254;4.490;2023-11-19T07:46:25;32.95;;;4.38;;
31004;SDS011;17676;52.254;4.490;2023-11-19T07:48:52;36.03;;;4.88;;
31004;SDS011;17676;52.254;4.490;2023-11-19T07:51:18;22.10;;;2.53;;
31004;SDS011;17676;52.254;4.490;2023-11-19T07:53:43;41.95;;;4.47;;
31004;SDS011;17676;52.254;4.490;2023-11-19T07:56:09;26.90;;;3.05;;
31004;SDS011;17676;52.254;4.490;2023-11-19T07:58:35;29.88;;;2.80;;
31004;SDS011;17676;52.254;4.490;2023-11-19T08:01:01;26.00;;;3.00;;
31004;SDS011;17676;52.254;4.490;2023-11-19T08:03:27;26.42;;;3.25;;
31004;SDS011;17676;52.254;4.490;2023-11-19T08:05:57;39.15;;;4.35;;
31004;SDS011;17676;52.254;4.490;2023-11-19T08:08:23;34.08;;;4.80;;
31004;SDS011;17676;52.254;4.490;2023-11-19T08:10:49;34.25;;;4.35;;
31004;SDS011;17676;52.254;4.490;2023-11-19T08:13:16;25.92;;;3.83;;
31004;SDS011;17676;52.254;4.490;2023-11-19T08:15:42;28.85;;;3.80;;
31004;SDS011;17676;52.254;4.490;2023-11-19T08:18:14;31.55;;;3.70;;
31004;SDS011;17676;52.254;4.490;2023-11-19T08:20:40;36.08;;;4.53;;
31004;SDS011;17676;52.254;4.490;2023-11-19T08:23:06;34.38;;;5.18;;
31004;SDS011;17676;52.254;4.490;2023-11-19T08:25:32;34.00;;;4.35;;
31004;SDS011;17676;52.254;4.490;2023-11-19T08:28:01;34.72;;;4.20;;
31004;SDS011;17676;52.254;4.490;2023-11-19T08:30:28;37.60;;;4.45;;
31004;SDS011;17676;52.254;4.490;2023-11-19T08:32:55;35.28;;;3.33;;
31004;SDS011;17676;52.254;4.490;2023-11-19T08:35:30;30.40;;;4.07;;
31004;SDS011;17676;52.254;4.490;2023-11-19T08:37:56;37.58;;;5.00;;
31004;SDS011;17676;52.254;4.490;2023-11-19T08:40:24;30.50;;;3.33;;
31004;SDS011;17676;52.254;4.490;2023-11-19T08:42:51;28.20;;;3.88;;
31004;SDS011;17676;52.254;4.490;2023-11-19T08:45:17;43.42;;;4.15;;
31004;SDS011;17676;52.254;4.490;2023-11-19T08:47:43;44.03;;;4.22;;
31004;SDS011;17676;52.254;4.490;2023-11-19T08:50:10;38.03;;;5.40;;
31004;SDS011;17676;52.254;4.490;2023-11-19T08:52:39;41.13;;;5.00;;
31004;SDS011;17676;52.254;4.490;2023-11-19T08:55:08;39.80;;;4.22;;
31004;SDS011;17676;52.254;4.490;2023-11-19T08:57:34;37.58;;;4.30;;
31004;SDS011;17676;52.254;4.490;2023-11-19T09:00:00;38.30;;;5.22;;
31004;SDS011;17676;52.254;4.490;2023-11-19T09:02:27;39.42;;;5.57;;
31004;SDS011;17676;52.254;4.490;2023-11-19T09:04:53;37.50;;;3.58;;
31004;SDS011;17676;52.254;4.490;2023-11-19T09:07:19;31.63;;;4.35;;
31004;SDS011;17676;52.254;4.490;2023-11-19T09:09:45;37.47;;;4.53;;
31004;SDS011;17676;52.254;4.490;2023-11-19T09:12:10;47.92;;;6.07;;
31004;SDS011;17676;52.254;4.490;2023-11-19T09:14:36;38.40;;;4.97;;
31004;SDS011;17676;52.254;4.490;2023-11-19T09:17:02;41.58;;;5.00;;
31004;SDS011;17676;52.254;4.490;2023-11-19T09:19:28;41.10;;;4.65;;
31004;SDS011;17676;52.254;4.490;2023-11-19T09:21:54;36.97;;;4.05;;
31004;SDS011;17676;52.254;4.490;2023-11-19T09:24:19;31.90;;;3.30;;
31004;SDS011;17676;52.254;4.490;2023-11-19T09:26:45;38.83;;;4.35;;
31004;SDS011;17676;52.254;4.490;2023-11-19T09:29:10;37.83;;;4.35;;
31004;SDS011;17676;52.254;4.490;2023-11-19T09:31:39;39.35;;;6.00;;
31004;SDS011;17676;52.254;4.490;2023-11-19T09:34:07;44.35;;;5.50;;
31004;SDS011;17676;52.254;4.490;2023-11-19T09:36:33;39.90;;;4.90;;
31004;SDS011;17676;52.254;4.490;2023-11-19T09:38:59;34.50;;;4.50;;
31004;SDS011;17676;52.254;4.490;2023-11-19T09:41:26;27.30;;;3.65;;
31004;SDS011;17676;52.254;4.490;2023-11-19T09:43:53;29.38;;;3.80;;
31004;SDS011;17676;52.254;4.490;2023-11-19T09:46:18;31.17;;;4.32;;
31004;SDS011;17676;52.254;4.490;2023-11-19T09:48:49;33.97;;;4.47;;
31004;SDS011;17676;52.254;4.490;2023-11-19T09:51:20;34.20;;;3.95;;
31004;SDS011;17676;52.254;4.490;2023-11-19T09:53:46;25.08;;;2.40;;
31004;SDS011;17676;52.254;4.490;2023-11-19T09:56:12;24.33;;;2.97;;
31004;SDS011;17676;52.254;4.490;2023-11-19T09:58:38;30.73;;;3.75;;
31004;SDS011;17676;52.254;4.490;2023-11-19T10:01:05;22.98;;;2.88;;
31004;SDS011;17676;52.254;4.490;2023-11-19T10:03:35;31.83;;;4.30;;
31004;SDS011;17676;52.254;4.490;2023-11-19T10:06:06;29.33;;;3.67;;
31004;SDS011;17676;52.254;4.490;2023-11-19T10:08:32;30.95;;;3.65;;
31004;SDS011;17676;52.254;4.490;2023-11-19T10:10:59;25.55;;;2.38;;
31004;SDS011;17676;52.254;4.490;2023-11-19T10:13:28;34.65;;;3.80;;
31004;SDS011;17676;52.254;4.490;2023-11-19T10:16:03;20.65;;;2.38;;
31004;SDS011;17676;52.254;4.490;2023-11-19T10:18:37;31.90;;;3.83;;
31004;SDS011;17676;52.254;4.490;2023-11-19T10:21:06;29.77;;;3.65;;
31004;SDS011;17676;52.254;4.490;2023-11-19T10:23:51;22.20;;;2.90;;
31004;SDS011;17676;52.254;4.490;2023-11-19T10:26:19;32.05;;;4.80;;
31004;SDS011;17676;52.254;4.490;2023-11-19T10:28:45;33.60;;;3.42;;
31004;SDS011;17676;52.254;4.490;2023-11-19T10:31:15;29.42;;;2.70;;
31004;SDS011;17676;52.254;4.490;2023-11-19T10:33:42;27.27;;;3.17;;
31004;SDS011;17676;52.254;4.490;2023-11-19T10:36:09;24.10;;;2.53;;
31004;SDS011;17676;52.254;4.490;2023-11-19T10:38:37;33.20;;;3.60;;
31004;SDS011;17676;52.254;4.490;2023-11-19T10:41:03;35.67;;;3.72;;
31004;SDS011;17676;52.254;4.490;2023-11-19T10:43:30;26.27;;;3.72;;
31004;SDS011;17676;52.254;4.490;2023-11-19T10:46:09;31.05;;;4.00;;
31004;SDS011;17676;52.254;4.490;2023-11-19T10:48:36;30.38;;;4.53;;
31004;SDS011;17676;52.254;4.490;2023-11-19T10:51:06;35.38;;;3.75;;
31004;SDS011;17676;52.254;4.490;2023-11-19T10:53:37;33.95;;;3.72;;
31004;SDS011;17676;52.254;4.490;2023-11-19T10:56:06;28.50;;;3.58;;
31004;SDS011;17676;52.254;4.490;2023-11-19T10:58:35;32.88;;;4.55;;
31004;SDS011;17676;52.254;4.490;2023-11-19T11:01:07;32.17;;;4.13;;
31004;SDS011;17676;52.254;4.490;2023-11-19T11:03:41;28.40;;;3.47;;
31004;SDS011;17676;52.254;4.490;2023-11-19T11:06:12;32.20;;;3.50;;
31004;SDS011;17676;52.254;4.490;2023-11-19T11:08:39;30.13;;;3.55;;
31004;SDS011;17676;52.254;4.490;2023-11-19T11:11:07;38.75;;;4.63;;
31004;SDS011;17676;52.254;4.490;2023-11-19T11:13:37;30.10;;;3.80;;
31004;SDS011;17676;52.254;4.490;2023-11-19T11:16:07;23.40;;;2.72;;
31004;SDS011;17676;52.254;4.490;2023-11-19T11:18:33;22.80;;;2.35;;
31004;SDS011;17676;52.254;4.490;2023-11-19T11:37:49;31.65;;;3.38;;
31004;SDS011;17676;52.254;4.490;2023-11-19T11:40:21;28.80;;;3.58;;
31004;SDS011;17676;52.254;4.490;2023-11-19T11:42:48;21.40;;;2.97;;
31004;SDS011;17676;52.254;4.490;2023-11-19T11:45:17;26.63;;;2.97;;
31004;SDS011;17676;52.254;4.490;2023-11-19T11:50:09;36.97;;;4.30;;
31004;SDS011;17676;52.254;4.490;2023-11-19T11:55:26;27.30;;;4.15;;
31004;SDS011;17676;52.254;4.490;2023-11-19T11:57:55;31.95;;;3.90;;
31004;SDS011;17676;52.254;4.490;2023-11-19T12:00:23;32.25;;;3.75;;
31004;SDS011;17676;52.254;4.490;2023-11-19T12:02:52;33.10;;;4.57;;
31004;SDS011;17676;52.254;4.490;2023-11-19T12:05:24;30.98;;;4.35;;
31004;SDS011;17676;52.254;4.490;2023-11-19T12:08:00;25.30;;;3.17;;
31004;SDS011;17676;52.254;4.490;2023-11-19T12:10:32;33.92;;;4.28;;
31004;SDS011;17676;52.254;4.490;2023-11-19T12:13:03;30.70;;;3.50;;
31004;SDS011;17676;52.254;4.490;2023-11-19T12:15:33;35.80;;;4.15;;
31004;SDS011;17676;52.254;4.490;2023-11-19T12:18:22;32.60;;;5.18;;
31004;SDS011;17676;52.254;4.490;2023-11-19T12:20:52;34.47;;;4.00;;
31004;SDS011;17676;52.254;4.490;2023-11-19T12:23:17;25.05;;;3.63;;
31004;SDS011;17676;52.254;4.490;2023-11-19T12:25:44;26.23;;;3.75;;
31004;SDS011;17676;52.254;4.490;2023-11-19T12:28:13;35.78;;;5.47;;
31004;SDS011;17676;52.254;4.490;2023-11-19T12:30:39;20.50;;;2.88;;
31004;SDS011;17676;52.254;4.490;2023-11-19T12:33:08;27.90;;;3.70;;
31004;SDS011;17676;52.254;4.490;2023-11-19T12:35:42;34.25;;;3.65;;
31004;SDS011;17676;52.254;4.490;2023-11-19T12:38:17;27.05;;;3.50;;
31004;SDS011;17676;52.254;4.490;2023-11-19T12:41:03;29.70;;;2.70;;
31004;SDS011;17676;52.254;4.490;2023-11-19T12:43:29;29.55;;;4.05;;
31004;SDS011;17676;52.254;4.490;2023-11-19T12:45:58;32.88;;;3.20;;
31004;SDS011;17676;52.254;4.490;2023-11-19T12:48:47;34.25;;;4.07;;
31004;SDS011;17676;52.254;4.490;2023-11-19T12:51:14;32.50;;;4.00;;
31004;SDS011;17676;52.254;4.490;2023-11-19T12:53:52;31.15;;;3.47;;
31004;SDS011;17676;52.254;4.490;2023-11-19T12:56:20;33.95;;;3.78;;
31004;SDS011;17676;52.254;4.490;2023-11-19T12:58:47;31.63;;;4.35;;
31004;SDS011;17676;52.254;4.490;2023-11-19T13:01:17;35.67;;;3.95;;
31004;SDS011;17676;52.254;4.490;2023-11-19T13:03:44;30.10;;;4.40;;
31004;SDS011;17676;52.254;4.490;2023-11-19T13:06:11;31.15;;;3.25;;
31004;SDS011;17676;52.254;4.490;2023-11-19T13:11:08;26.98;;;3.35;;
31004;SDS011;17676;52.254;4.490;2023-11-19T13:16:26;30.77;;;3.05;;
31004;SDS011;17676;52.254;4.490;2023-11-19T13:18:52;31.35;;;2.72;;
31004;SDS011;17676;52.254;4.490;2023-11-19T13:21:18;33.05;;;4.07;;
31004;SDS011;17676;52.254;4.490;2023-11-19T13:23:44;25.98;;;2.70;;
31004;SDS011;17676;52.254;4.490;2023-11-19T13:26:10;22.27;;;2.50;;
31004;SDS011;17676;52.254;4.490;2023-11-19T13:28:37;20.55;;;2.33;;
31004;SDS011;17676;52.254;4.490;2023-11-19T13:31:03;31.88;;;3.92;;
31004;SDS011;17676;52.254;4.490;2023-11-19T13:33:30;25.17;;;2.88;;
31004;SDS011;17676;52.254;4.490;2023-11-19T13:35:56;31.90;;;3.65;;
31004;SDS011;17676;52.254;4.490;2023-11-19T13:38:22;29.65;;;3.65;;
31004;SDS011;17676;52.254;4.490;2023-11-19T13:40:51;28.67;;;2.97;;
31004;SDS011;17676;52.254;4.490;2023-11-19T13:43:22;35.08;;;3.97;;
31004;SDS011;17676;52.254;4.490;2023-11-19T13:45:48;27.38;;;3.47;;
31004;SDS011;17676;52.254;4.490;2023-11-19T13:48:13;28.13;;;3.00;;
31004;SDS011;17676;52.254;4.490;2023-11-19T13:50:39;26.77;;;3.13;;
31004;SDS011;17676;52.254;4.490;2023-11-19T13:53:04;24.70;;;3.00;;
31004;SDS011;17676;52.254;4.490;2023-11-19T13:55:30;30.75;;;3.15;;
31004;SDS011;17676;52.254;4.490;2023-11-19T13:57:55;35.60;;;3.80;;
31004;SDS011;17676;52.254;4.490;2023-11-19T14:00:21;32.67;;;4.53;;
31004;SDS011;17676;52.254;4.490;2023-11-19T14:02:51;34.72;;;5.10;;
31004;SDS011;17676;52.254;4.490;2023-11-19T14:05:17;34.08;;;4.45;;
31004;SDS011;17676;52.254;4.490;2023-11-19T14:07:43;36.78;;;4.10;;
31004;SDS011;17676;52.254;4.490;2023-11-19T14:10:09;35.78;;;4.07;;
31004;SDS011;17676;52.254;4.490;2023-11-19T14:12:36;32.38;;;5.00;;
31004;SDS011;17676;52.254;4.490;2023-11-19T14:15:02;38.22;;;4.63;;
31004;SDS011;17676;52.254;4.490;2023-11-19T14:17:30;37.47;;;4.88;;
31004;SDS011;17676;52.254;4.490;2023-11-19T14:19:56;40.05;;;5.50;;
31004;SDS011;17676;52.254;4.490;2023-11-19T14:22:22;35.40;;;4.57;;
31004;SDS011;17676;52.254;4.490;2023-11-19T14:24:48;35.53;;;4.80;;
31004;SDS011;17676;52.254;4.490;2023-11-19T14:27:13;32.35;;;4.20;;
31004;SDS011;17676;52.254;4.490;2023-11-19T14:29:44;33.38;;;4.32;;
31004;SDS011;17676;52.254;4.490;2023-11-19T14:32:12;26.90;;;3.58;;
31004;SDS011;17676;52.254;4.490;2023-11-19T14:34:39;36.88;;;4.15;;
31004;SDS011;17676;52.254;4.490;2023-11-19T14:37:05;41.70;;;4.90;;
31004;SDS011;17676;52.254;4.490;2023-11-19T14:39:31;40.00;;;4.35;;
31004;SDS011;17676;52.254;4.490;2023-11-19T14:41:57;44.22;;;6.25;;
31004;SDS011;17676;52.254;4.490;2023-11-19T14:44:26;38.85;;;4.13;;
31004;SDS011;17676;52.254;4.490;2023-11-19T14:46:54;39.20;;;5.25;;
31004;SDS011;17676;52.254;4.490;2023-11-19T14:49:30;30.52;;;3.58;;
31004;SDS011;17676;52.254;4.490;2023-11-19T14:51:58;34.17;;;4.47;;
31004;SDS011;17676;52.254;4.490;2023-11-19T14:54:24;33.88;;;4.43;;
31004;SDS011;17676;52.254;4.490;2023-11-19T14:56:51;31.75;;;3.33;;
31004;SDS011;17676;52.254;4.490;2023-11-19T14:59:17;37.55;;;3.58;;
31004;SDS011;17676;52.254;4.490;2023-11-19T15:01:45;40.08;;;5.10;;
31004;SDS011;17676;52.254;4.490;2023-11-19T15:04:11;34.92;;;4.85;;